Time;durP1;ratioP1;P1;durP2;ratioP2;P2;SDS_P1;SDS_P2;PMS_P1;PMS_P2;Temp;Humidity;BMP_temperature;BMP_pressure;BME280_temperature;BME280_humidity;BME280_pressure;Samples;Min_cycle;Max_cycle;Signal;HPM_P1;HPM_P2
2023/10/17 00:00:58;;;;;;;;;;;4.70;99.90;;;;;;5094151;28;19931;-70
2023/10/17 00:03:25;;;;;;;;;;;4.70;99.90;;;;;;5095013;28;20386;-70
2023/10/17 00:05:54;;;;;;;;;;;4.70;99.90;;;;;;5094482;28;20003;-70
2023/10/17 00:08:21;;;;;;;;;;;4.60;99.90;;;;;;5095143;28;19924;-72
2023/10/17 00:10:48;;;;;;;;;;;4.60;99.90;;;;;;5091957;28;19928;-72
2023/10/17 00:13:25;;;;;;;;;;;4.60;99.90;;;;;;5094429;28;20007;-72
2023/10/17 00:15:53;;;;;;;;;;;4.60;99.90;;;;;;5087240;28;19943;-73
2023/10/17 00:18:24;;;;;;;;;;;4.60;99.90;;;;;;5095028;28;19924;-72
2023/10/17 00:20:53;;;;;;;;;;;4.60;99.90;;;;;;5093657;28;19967;-72
2023/10/17 00:23:21;;;;;;;;;;;4.60;99.90;;;;;;5093444;28;19931;-70
2023/10/17 00:25:49;;;;;;;;;;;4.60;99.90;;;;;;5095089;28;20015;-72
2023/10/17 00:28:20;;;;;;;;;;;4.50;99.90;;;;;;5093755;28;20011;-70
2023/10/17 00:30:48;;;;;;;;;;;4.50;99.90;;;;;;5094080;28;20117;-70
2023/10/17 00:33:20;;;;;;;;;;;4.50;99.90;;;;;;5094403;28;19931;-70
2023/10/17 00:35:47;;;;;;;;;;;4.50;99.90;;;;;;5091885;28;19923;-72
2023/10/17 00:38:15;;;;;;;;;;;4.40;99.90;;;;;;5094316;28;20410;-72
2023/10/17 00:40:48;;;;;;;;;;;4.40;99.90;;;;;;5096695;28;20014;-72
2023/10/17 00:43:15;;;;;;;;;;;4.30;99.90;;;;;;5099042;28;19924;-72
2023/10/17 00:45:43;;;;;;;;;;;4.30;99.90;;;;;;5100423;28;20412;-72
2023/10/17 00:48:17;;;;;;;;;;;4.30;99.90;;;;;;5098990;28;19924;-72
2023/10/17 00:50:46;;;;;;;;;;;4.30;99.90;;;;;;5097432;28;19931;-71
2023/10/17 00:53:13;;;;;;;;;;;4.30;99.90;;;;;;5098563;28;19931;-72
2023/10/17 00:55:40;;;;;;;;;;;4.20;99.90;;;;;;5100072;28;19927;-72
2023/10/17 00:58:06;;;;;;;;;;;4.20;99.90;;;;;;5099021;28;19931;-73
2023/10/17 01:00:36;;;;;;;;;;;4.20;99.90;;;;;;5098536;28;19924;-72
2023/10/17 01:03:08;;;;;;;;;;;4.20;99.90;;;;;;5098569;28;19978;-72
2023/10/17 01:05:42;;;;;;;;;;;4.20;99.90;;;;;;5099833;28;20058;-72
2023/10/17 01:08:09;;;;;;;;;;;4.10;99.90;;;;;;5098708;28;19997;-72
2023/10/17 01:10:38;;;;;;;;;;;4.10;99.90;;;;;;5097600;28;19928;-72
2023/10/17 01:13:05;;;;;;;;;;;4.10;99.90;;;;;;5098251;28;19924;-72
2023/10/17 01:15:33;;;;;;;;;;;4.10;99.90;;;;;;5098863;28;20220;-72
2023/10/17 01:18:04;;;;;;;;;;;4.10;99.90;;;;;;5094552;28;19931;-72
2023/10/17 01:20:30;;;;;;;;;;;4.10;99.90;;;;;;5099191;28;20447;-70
2023/10/17 01:23:00;;;;;;;;;;;4.10;99.90;;;;;;5090570;28;19924;-70
2023/10/17 01:25:29;;;;;;;;;;;4.10;99.90;;;;;;5097673;28;19924;-73
2023/10/17 01:27:57;;;;;;;;;;;4.10;99.90;;;;;;5098842;28;20293;-72
2023/10/17 01:30:23;;;;;;;;;;;4.10;99.90;;;;;;5099224;28;19986;-72
2023/10/17 01:32:51;;;;;;;;;;;4.10;99.90;;;;;;5099735;28;19932;-73
2023/10/17 01:35:19;;;;;;;;;;;4.10;99.90;;;;;;5098927;28;20036;-72
2023/10/17 01:37:45;;;;;;;;;;;4.10;99.90;;;;;;5100096;28;20091;-72
2023/10/17 01:40:19;;;;;;;;;;;4.10;99.90;;;;;;5098406;28;19969;-72
2023/10/17 01:42:47;;;;;;;;;;;4.00;99.90;;;;;;5096785;28;20160;-72
2023/10/17 01:45:15;;;;;;;;;;;3.90;99.90;;;;;;5095569;28;20291;-72
2023/10/17 01:47:43;;;;;;;;;;;3.90;99.90;;;;;;5098895;28;19931;-72
2023/10/17 01:50:10;;;;;;;;;;;3.80;99.90;;;;;;5098234;28;19924;-72
2023/10/17 01:52:37;;;;;;;;;;;3.80;99.90;;;;;;5099343;28;19938;-72
2023/10/17 01:55:10;;;;;;;;;;;3.80;99.90;;;;;;5099098;28;19924;-72
2023/10/17 01:57:40;;;;;;;;;;;3.80;99.90;;;;;;5101470;28;20430;-72
2023/10/17 02:00:17;;;;;;;;;;;3.80;99.90;;;;;;5098851;28;19967;-72
2023/10/17 02:02:44;;;;;;;;;;;3.70;99.90;;;;;;5093725;28;19931;-72
2023/10/17 02:05:12;;;;;;;;;;;3.70;99.90;;;;;;5098811;28;20447;-72
2023/10/17 02:07:39;;;;;;;;;;;3.70;99.90;;;;;;5100723;28;20024;-72
2023/10/17 02:10:07;;;;;;;;;;;3.60;99.90;;;;;;5095667;28;19985;-72
2023/10/17 02:12:34;;;;;;;;;;;3.60;99.90;;;;;;5100015;28;20019;-72
2023/10/17 02:15:02;;;;;;;;;;;3.60;99.90;;;;;;5093656;28;20012;-72
2023/10/17 02:17:30;;;;;;;;;;;3.60;99.90;;;;;;5100666;28;19954;-72
2023/10/17 02:19:59;;;;;;;;;;;3.60;99.90;;;;;;5098594;28;20381;-72
2023/10/17 02:22:26;;;;;;;;;;;3.70;99.90;;;;;;5097351;28;19924;-72
2023/10/17 02:24:55;;;;;;;;;;;3.70;99.90;;;;;;5100091;28;19994;-72
2023/10/17 02:27:23;;;;;;;;;;;3.70;99.90;;;;;;5099595;28;19924;-72
2023/10/17 02:29:49;;;;;;;;;;;3.80;99.90;;;;;;5100296;28;19928;-72
2023/10/17 02:32:18;;;;;;;;;;;3.80;99.90;;;;;;5098708;28;20015;-72
2023/10/17 02:34:47;;;;;;;;;;;3.70;99.90;;;;;;5096291;28;20304;-72
2023/10/17 02:37:17;;;;;;;;;;;3.70;99.90;;;;;;5095522;28;19954;-72
2023/10/17 02:39:44;;;;;;;;;;;3.80;99.90;;;;;;5096068;28;19924;-72
2023/10/17 02:42:11;;;;;;;;;;;3.80;99.90;;;;;;5098667;28;19969;-72
2023/10/17 02:44:43;;;;;;;;;;;3.80;99.90;;;;;;5101021;28;19932;-72
2023/10/17 02:47:12;;;;;;;;;;;3.70;99.90;;;;;;5098548;28;20015;-72
2023/10/17 02:49:39;;;;;;;;;;;3.70;99.90;;;;;;5100895;28;20001;-72
2023/10/17 02:52:07;;;;;;;;;;;3.70;99.90;;;;;;5099005;28;19931;-72
2023/10/17 02:54:53;;;;;;;;;;;3.70;99.90;;;;;;5101048;28;19978;-72
2023/10/17 02:57:20;;;;;;;;;;;3.70;99.90;;;;;;5099122;28;19924;-72
2023/10/17 02:59:47;;;;;;;;;;;3.70;99.90;;;;;;5101059;28;20015;-72
2023/10/17 03:02:16;;;;;;;;;;;3.70;99.90;;;;;;5097916;28;19925;-72
2023/10/17 03:04:43;;;;;;;;;;;3.70;99.90;;;;;;5095775;28;19923;-72
2023/10/17 03:07:12;;;;;;;;;;;3.70;99.90;;;;;;5099033;28;19982;-72
2023/10/17 03:09:39;;;;;;;;;;;3.70;99.90;;;;;;5098231;28;19951;-72
2023/10/17 03:12:09;;;;;;;;;;;3.60;99.90;;;;;;5099090;28;19924;-72
2023/10/17 03:14:40;;;;;;;;;;;3.70;99.90;;;;;;5099834;28;19927;-72
2023/10/17 03:17:06;;;;;;;;;;;3.70;99.90;;;;;;5095349;28;19977;-72
2023/10/17 03:19:33;;;;;;;;;;;3.70;99.90;;;;;;5100485;28;19920;-72
2023/10/17 03:22:16;;;;;;;;;;;3.70;99.90;;;;;;5095776;28;19924;-72
2023/10/17 03:24:44;;;;;;;;;;;3.70;99.90;;;;;;5095446;28;19924;-72
2023/10/17 03:27:11;;;;;;;;;;;3.70;99.90;;;;;;5098436;28;20018;-72
2023/10/17 03:29:42;;;;;;;;;;;3.70;99.90;;;;;;5099183;28;20353;-73
2023/10/17 03:32:12;;;;;;;;;;;3.70;99.90;;;;;;5099229;28;19925;-73
2023/10/17 03:34:44;;;;;;;;;;;3.70;99.90;;;;;;5101995;28;20358;-72
2023/10/17 03:39:53;;;;;;;;;;;3.80;99.90;;;;;;5096235;28;19920;-72
2023/10/17 03:42:31;;;;;;;;;;;3.90;99.90;;;;;;5099575;28;19928;-72
2023/10/17 03:44:58;;;;;;;;;;;3.90;99.90;;;;;;5099591;28;20351;-72
2023/10/17 03:47:26;;;;;;;;;;;3.90;99.90;;;;;;5099660;28;19924;-72
2023/10/17 03:49:56;;;;;;;;;;;4.00;99.90;;;;;;5100951;28;19996;-72
2023/10/17 03:52:22;;;;;;;;;;;4.00;99.90;;;;;;5099267;28;19924;-72
2023/10/17 03:54:49;;;;;;;;;;;4.00;99.90;;;;;;5101689;28;19955;-72
2023/10/17 03:57:16;;;;;;;;;;;4.00;99.90;;;;;;5098610;28;20412;-70
2023/10/17 03:59:51;;;;;;;;;;;4.10;99.90;;;;;;5096866;28;19969;-72
2023/10/17 04:02:19;;;;;;;;;;;4.10;99.90;;;;;;5098941;28;19924;-72
2023/10/17 04:04:52;;;;;;;;;;;4.10;99.90;;;;;;5101993;28;19923;-72
2023/10/17 04:07:21;;;;;;;;;;;4.10;99.90;;;;;;5095192;28;19924;-72
2023/10/17 04:09:54;;;;;;;;;;;4.10;99.90;;;;;;5097320;28;19931;-72
2023/10/17 04:12:31;;;;;;;;;;;4.10;99.90;;;;;;5099332;28;20447;-72
2023/10/17 04:14:59;;;;;;;;;;;4.00;99.90;;;;;;5100429;28;20467;-72
2023/10/17 04:17:29;;;;;;;;;;;4.00;99.90;;;;;;5096200;28;19970;-72
2023/10/17 04:19:59;;;;;;;;;;;4.00;99.90;;;;;;5100244;28;19992;-72
2023/10/17 04:22:29;;;;;;;;;;;4.00;99.90;;;;;;5096194;28;19924;-72
2023/10/17 04:25:00;;;;;;;;;;;4.00;99.90;;;;;;5101202;28;19943;-72
2023/10/17 04:27:32;;;;;;;;;;;4.00;99.90;;;;;;5100409;28;19924;-72
2023/10/17 04:29:58;;;;;;;;;;;4.00;99.90;;;;;;5100732;28;19928;-72
2023/10/17 04:32:28;;;;;;;;;;;4.00;99.90;;;;;;5100373;28;19924;-72
2023/10/17 04:34:55;;;;;;;;;;;4.00;99.90;;;;;;5101416;28;19927;-72
2023/10/17 04:37:31;;;;;;;;;;;4.00;99.90;;;;;;5096173;28;19924;-72
2023/10/17 04:39:58;;;;;;;;;;;3.90;99.90;;;;;;5101459;28;20027;-72
2023/10/17 04:42:26;;;;;;;;;;;3.90;99.90;;;;;;5100064;28;20025;-72
2023/10/17 04:45:02;;;;;;;;;;;3.90;99.90;;;;;;5102821;28;19920;-72
2023/10/17 04:47:29;;;;;;;;;;;3.90;99.90;;;;;;5101124;28;19924;-72
2023/10/17 04:49:55;;;;;;;;;;;3.90;99.90;;;;;;5101814;28;19931;-72
2023/10/17 04:52:28;;;;;;;;;;;3.80;99.90;;;;;;5100567;28;19928;-72
2023/10/17 04:54:58;;;;;;;;;;;3.80;99.90;;;;;;5102132;28;20374;-72
2023/10/17 04:57:48;;;;;;;;;;;3.80;99.90;;;;;;5101032;28;19971;-73
2023/10/17 05:00:24;;;;;;;;;;;3.80;99.90;;;;;;5099165;28;19927;-72
2023/10/17 05:02:55;;;;;;;;;;;3.70;99.90;;;;;;5099379;28;19923;-72
2023/10/17 05:05:40;;;;;;;;;;;3.70;99.90;;;;;;5100049;28;20378;-72
2023/10/17 05:08:11;;;;;;;;;;;3.80;99.90;;;;;;5099580;28;19985;-72
2023/10/17 06:19:15;;;;;;;;;;;3.90;99.90;;;;;;5104932;28;19958;-71
2023/10/17 06:22:37;;;;;;;;;;;4.00;99.90;;;;;;5107410;28;19974;-71
2023/10/17 06:30:34;;;;;;;;;;;4.00;99.90;;;;;;5092916;28;19931;-71
2023/10/17 06:33:08;;;;;;;;;;;4.10;99.90;;;;;;5089714;28;19924;-71
2023/10/17 06:35:44;;;;;;;;;;;4.10;99.90;;;;;;5088908;28;19951;-71
2023/10/17 06:38:15;;;;;;;;;;;4.20;99.90;;;;;;5088601;28;20038;-71
2023/10/17 06:40:45;;;;;;;;;;;4.30;99.90;;;;;;5088975;28;19977;-71
2023/10/17 06:43:13;;;;;;;;;;;4.30;99.90;;;;;;5089009;28;20035;-71
2023/10/17 06:45:51;;;;;;;;;;;4.40;99.90;;;;;;5089444;28;19920;-71
2023/10/17 06:48:18;;;;;;;;;;;4.40;99.90;;;;;;5089799;28;19932;-71
2023/10/17 06:53:31;;;;;;;;;;;4.40;99.90;;;;;;5089780;28;19973;-71
2023/10/17 06:56:04;;;;;;;;;;;4.40;99.90;;;;;;5089546;28;19935;-71
2023/10/17 06:58:32;;;;;;;;;;;4.50;99.90;;;;;;5089854;28;19932;-71
2023/10/17 07:00:59;;;;;;;;;;;4.50;99.90;;;;;;5088870;28;19930;-72
2023/10/17 07:03:26;;;;;;;;;;;4.50;99.90;;;;;;5089209;28;19932;-71
2023/10/17 07:05:54;;;;;;;;;;;4.50;99.90;;;;;;5088890;28;19932;-71
2023/10/17 07:08:21;;;;;;;;;;;4.50;99.90;;;;;;5088928;28;20019;-71
2023/10/17 07:11:02;;;;;;;;;;;4.60;99.90;;;;;;5088164;28;20336;-71
2023/10/17 07:13:49;;;;;;;;;;;4.70;99.90;;;;;;5089305;28;20293;-71
2023/10/17 07:16:16;;;;;;;;;;;4.70;99.90;;;;;;5088240;28;19932;-71
2023/10/17 07:18:47;;;;;;;;;;;4.70;99.90;;;;;;5088232;28;19939;-71
2023/10/17 07:21:17;;;;;;;;;;;4.80;99.90;;;;;;5088830;28;20396;-71
2023/10/17 07:23:45;;;;;;;;;;;4.80;99.90;;;;;;5088473;28;20393;-71
2023/10/17 07:26:17;;;;;;;;;;;4.80;99.90;;;;;;5088279;28;19924;-71
2023/10/17 07:28:44;;;;;;;;;;;4.90;99.90;;;;;;5087905;28;20022;-71
2023/10/17 07:31:11;;;;;;;;;;;4.90;99.90;;;;;;5087827;28;19981;-71
2023/10/17 07:33:38;;;;;;;;;;;5.00;99.90;;;;;;5088051;28;19971;-71
2023/10/17 07:36:06;;;;;;;;;;;5.00;99.90;;;;;;5088488;28;19978;-71
2023/10/17 07:38:32;;;;;;;;;;;5.10;99.90;;;;;;5088625;28;19930;-71
2023/10/17 07:41:12;;;;;;;;;;;5.20;99.90;;;;;;5088971;28;19990;-71
2023/10/17 07:43:43;;;;;;;;;;;5.30;99.90;;;;;;5089049;28;20317;-69
2023/10/17 07:46:15;;;;;;;;;;;5.40;99.90;;;;;;5088249;28;19936;-71
2023/10/17 07:48:46;;;;;;;;;;;5.40;99.90;;;;;;5087446;28;20427;-69
2023/10/17 07:51:15;;;;;;;;;;;5.50;99.90;;;;;;5088530;28;19924;-69
2023/10/17 07:53:45;;;;;;;;;;;5.60;99.90;;;;;;5089075;28;19967;-69
2023/10/17 07:56:20;;;;;;;;;;;5.60;99.90;;;;;;5088595;28;19955;-71
2023/10/17 07:58:56;;;;;;;;;;;5.70;99.90;;;;;;5088993;28;19924;-68
2023/10/17 08:01:31;;;;;;;;;;;5.80;99.90;;;;;;5084764;28;19939;-68
2023/10/17 08:04:12;;;;;;;;;;;5.80;99.90;;;;;;5088119;28;19924;-68
2023/10/17 08:06:39;;;;;;;;;;;5.90;99.90;;;;;;5087299;28;20762;-69
2023/10/17 08:09:16;;;;;;;;;;;6.00;99.90;;;;;;5086460;28;21280;-69
2023/10/17 08:11:43;;;;;;;;;;;6.20;99.90;;;;;;5087404;28;20005;-69
2023/10/17 08:14:16;;;;;;;;;;;6.30;99.90;;;;;;5087453;28;19936;-69
2023/10/17 08:16:43;;;;;;;;;;;6.40;99.90;;;;;;5086804;28;20420;-69
2023/10/17 08:19:21;;;;;;;;;;;6.50;99.90;;;;;;5086719;28;19975;-69
2023/10/17 08:22:17;;;;;;;;;;;6.90;99.90;;;;;;5087044;28;19932;-69
2023/10/17 08:24:46;;;;;;;;;;;6.80;99.90;;;;;;5087628;28;20570;-69
2023/10/17 08:27:41;;;;;;;;;;;6.80;99.90;;;;;;5086566;28;20001;-68
2023/10/17 08:30:14;;;;;;;;;;;6.80;99.90;;;;;;5086064;28;20179;-69
2023/10/17 08:32:55;;;;;;;;;;;6.90;99.90;;;;;;5087743;28;19935;-69
2023/10/17 08:35:21;;;;;;;;;;;7.00;99.90;;;;;;5087301;28;19959;-69
2023/10/17 08:37:52;;;;;;;;;;;7.10;99.90;;;;;;5087183;28;20016;-69
2023/10/17 08:40:29;;;;;;;;;;;7.30;99.90;;;;;;5087179;28;19939;-69
2023/10/17 08:42:56;;;;;;;;;;;7.40;99.90;;;;;;5086741;28;19927;-69
2023/10/17 08:45:26;;;;;;;;;;;7.50;99.90;;;;;;5087886;28;20698;-69
2023/10/17 08:47:54;;;;;;;;;;;7.50;99.90;;;;;;5086887;28;19931;-69
2023/10/17 08:50:20;;;;;;;;;;;7.60;99.90;;;;;;5085875;28;19939;-69
2023/10/17 08:52:48;;;;;;;;;;;7.80;99.90;;;;;;5087267;28;19928;-69
2023/10/17 08:55:16;;;;;;;;;;;7.80;99.90;;;;;;5086083;28;19923;-69
2023/10/17 08:57:43;;;;;;;;;;;8.00;99.90;;;;;;5086416;28;19977;-69
2023/10/17 09:00:39;;;;;;;;;;;8.00;99.90;;;;;;5086412;28;20024;-69
2023/10/17 09:03:09;;;;;;;;;;;8.10;99.90;;;;;;5090986;28;19924;-69
2023/10/17 09:05:51;;;;;;;;;;;8.10;99.90;;;;;;5090468;28;20007;-69
2023/10/17 09:08:21;;;;;;;;;;;8.20;99.90;;;;;;5090215;28;20450;-69
2023/10/17 09:10:51;;;;;;;;;;;8.20;99.90;;;;;;5089628;28;19939;-69
2023/10/17 09:16:09;;;;;;;;;;;8.20;99.90;;;;;;5089149;28;20438;-69
2023/10/17 09:18:40;;;;;;;;;;;8.30;99.90;;;;;;5090285;28;20342;-69
2023/10/17 09:21:08;;;;;;;;;;;8.40;99.90;;;;;;5089911;28;19978;-69
2023/10/17 09:23:38;;;;;;;;;;;8.60;99.90;;;;;;5088741;28;19924;-69
2023/10/17 09:26:09;;;;;;;;;;;8.70;99.90;;;;;;5089582;28;19924;-69
2023/10/17 09:28:36;;;;;;;;;;;8.80;99.90;;;;;;5088920;28;19924;-69
2023/10/17 09:31:06;;;;;;;;;;;8.90;99.90;;;;;;5089392;28;19977;-69
2023/10/17 09:33:33;;;;;;;;;;;9.00;99.90;;;;;;5090104;28;19969;-69
2023/10/17 09:36:04;;;;;;;;;;;9.00;99.90;;;;;;5091528;28;20014;-70
2023/10/17 09:38:31;;;;;;;;;;;9.10;99.90;;;;;;5088142;28;19940;-70
2023/10/17 09:40:58;;;;;;;;;;;9.10;99.90;;;;;;5088379;28;19932;-70
2023/10/17 09:43:25;;;;;;;;;;;9.20;99.90;;;;;;5089288;28;19931;-70
2023/10/17 09:45:53;;;;;;;;;;;9.20;99.90;;;;;;5088015;28;20378;-69
2023/10/17 09:48:26;;;;;;;;;;;9.30;99.90;;;;;;5088971;28;19939;-70
2023/10/17 09:50:56;;;;;;;;;;;9.40;99.90;;;;;;5089746;28;20373;-70
2023/10/17 09:53:29;;;;;;;;;;;9.50;99.90;;;;;;5090724;28;19939;-70
2023/10/17 09:55:57;;;;;;;;;;;9.60;99.90;;;;;;5090343;28;19928;-70
2023/10/17 09:58:27;;;;;;;;;;;9.70;99.90;;;;;;5089516;28;19935;-70
2023/10/17 10:00:55;;;;;;;;;;;9.80;99.90;;;;;;5089371;28;19924;-70
2023/10/17 10:03:24;;;;;;;;;;;9.90;99.90;;;;;;5089785;28;19936;-70
2023/10/17 10:05:53;;;;;;;;;;;10.00;99.90;;;;;;5089671;28;19970;-70
2023/10/17 10:08:38;;;;;;;;;;;10.10;99.90;;;;;;5089507;28;20025;-70
2023/10/17 10:11:06;;;;;;;;;;;10.10;99.90;;;;;;5089005;28;19959;-70
2023/10/17 10:13:53;;;;;;;;;;;10.20;99.90;;;;;;5089318;28;20000;-70
2023/10/17 10:16:21;;;;;;;;;;;10.20;99.90;;;;;;5088105;28;19977;-70
2023/10/17 10:18:54;;;;;;;;;;;10.30;99.90;;;;;;5088307;28;20010;-70
2023/10/17 10:21:22;;;;;;;;;;;10.30;99.90;;;;;;5087489;28;19958;-70
2023/10/17 10:23:50;;;;;;;;;;;10.40;99.90;;;;;;5089265;28;20467;-70
2023/10/17 10:26:19;;;;;;;;;;;10.40;99.90;;;;;;5089081;28;19932;-70
2023/10/17 10:28:46;;;;;;;;;;;10.40;99.90;;;;;;5088653;28;19936;-70
2023/10/17 10:31:31;;;;;;;;;;;10.40;99.90;;;;;;5089134;28;19931;-70
2023/10/17 10:33:58;;;;;;;;;;;10.60;99.90;;;;;;5089401;28;19932;-70
2023/10/17 10:36:25;;;;;;;;;;;10.80;99.90;;;;;;5087777;28;20383;-70
2023/10/17 10:38:53;;;;;;;;;;;11.00;99.90;;;;;;5088720;28;19977;-70
2023/10/17 10:41:22;;;;;;;;;;;11.50;99.90;;;;;;5088524;28;20015;-70
2023/10/17 10:43:51;;;;;;;;;;;12.00;99.90;;;;;;5088960;28;19924;-70
2023/10/17 10:46:18;;;;;;;;;;;12.50;99.90;;;;;;5088814;28;19924;-70
2023/10/17 10:48:48;;;;;;;;;;;13.00;99.90;;;;;;5088415;28;19932;-71
2023/10/17 10:51:15;;;;;;;;;;;12.90;99.90;;;;;;5088786;28;19931;-71
2023/10/17 10:53:44;;;;;;;;;;;13.10;99.90;;;;;;5089130;28;19947;-70
2023/10/17 10:56:11;;;;;;;;;;;12.90;99.90;;;;;;5088213;28;19940;-70
2023/10/17 10:58:47;;;;;;;;;;;12.80;99.90;;;;;;5088417;28;19932;-71
2023/10/17 11:01:14;;;;;;;;;;;12.80;99.90;;;;;;5088131;28;19936;-71
2023/10/17 11:03:41;;;;;;;;;;;13.10;99.90;;;;;;5088124;28;20397;-71
2023/10/17 11:06:08;;;;;;;;;;;13.30;99.90;;;;;;5087955;28;20386;-71
2023/10/17 11:08:35;;;;;;;;;;;13.50;99.90;;;;;;5087710;28;20014;-71
2023/10/17 11:11:03;;;;;;;;;;;13.70;99.90;;;;;;5088177;28;19968;-71
2023/10/17 11:13:34;;;;;;;;;;;13.90;99.90;;;;;;5088130;28;21197;-72
2023/10/17 11:16:04;;;;;;;;;;;14.30;99.90;;;;;;5087984;28;20037;-71
2023/10/17 11:18:33;;;;;;;;;;;14.40;99.90;;;;;;5087299;28;20014;-71
2023/10/17 11:21:00;;;;;;;;;;;14.50;99.90;;;;;;5087740;28;20439;-71
2023/10/17 11:23:27;;;;;;;;;;;14.70;99.90;;;;;;5087715;28;20282;-71
2023/10/17 11:25:54;;;;;;;;;;;15.10;99.90;;;;;;5087899;28;19930;-71
2023/10/17 11:28:21;;;;;;;;;;;15.10;99.90;;;;;;5087328;28;19993;-71
2023/10/17 11:30:48;;;;;;;;;;;14.70;99.90;;;;;;5086487;28;19978;-71
2023/10/17 11:33:17;;;;;;;;;;;14.30;99.90;;;;;;5087712;28;19931;-71
2023/10/17 11:35:47;;;;;;;;;;;14.00;99.90;;;;;;5087055;28;20317;-71
2023/10/17 11:38:33;;;;;;;;;;;13.80;99.90;;;;;;5088419;28;19930;-70
2023/10/17 11:41:00;;;;;;;;;;;13.90;99.90;;;;;;5087447;28;19932;-71
2023/10/17 11:43:29;;;;;;;;;;;14.20;99.90;;;;;;5088178;28;19936;-71
2023/10/17 11:45:56;;;;;;;;;;;14.60;99.90;;;;;;5087817;28;19927;-71
2023/10/17 11:48:26;;;;;;;;;;;14.90;99.90;;;;;;5086791;28;20437;-71
2023/10/17 11:51:03;;;;;;;;;;;14.90;99.90;;;;;;5087251;28;19927;-71
2023/10/17 11:53:30;;;;;;;;;;;14.70;99.90;;;;;;5087726;28;19978;-71
2023/10/17 11:55:57;;;;;;;;;;;14.80;99.90;;;;;;5087699;28;19932;-71
2023/10/17 11:58:25;;;;;;;;;;;15.00;99.90;;;;;;5086997;28;19940;-71
2023/10/17 12:00:51;;;;;;;;;;;14.80;99.90;;;;;;5086709;28;20446;-71
2023/10/17 12:03:20;;;;;;;;;;;14.70;99.90;;;;;;5087363;28;19924;-71
2023/10/17 12:05:48;;;;;;;;;;;15.10;99.90;;;;;;5087368;28;19983;-71
2023/10/17 12:08:21;;;;;;;;;;;15.20;99.90;;;;;;5087485;28;19932;-71
2023/10/17 12:10:49;;;;;;;;;;;15.30;99.90;;;;;;5087154;28;19932;-72
2023/10/17 12:13:17;;;;;;;;;;;15.60;99.90;;;;;;5087051;28;19932;-71
2023/10/17 12:15:44;;;;;;;;;;;15.70;99.90;;;;;;5087284;28;19928;-71
2023/10/17 12:18:10;;;;;;;;;;;15.50;99.90;;;;;;5087639;28;20017;-70
2023/10/17 12:20:40;;;;;;;;;;;15.50;99.90;;;;;;5086078;28;20474;-70
2023/10/17 12:23:09;;;;;;;;;;;15.60;99.90;;;;;;5087428;28;19924;-70
2023/10/17 12:25:36;;;;;;;;;;;15.40;99.90;;;;;;5086375;28;20037;-70
2023/10/17 12:28:03;;;;;;;;;;;15.40;99.90;;;;;;5087095;28;19932;-70
2023/10/17 12:30:35;;;;;;;;;;;15.60;99.90;;;;;;5086430;28;21063;-70
2023/10/17 12:33:02;;;;;;;;;;;15.90;99.90;;;;;;5087226;28;19935;-71
2023/10/17 12:35:29;;;;;;;;;;;16.20;99.90;;;;;;5090466;28;19971;-70
2023/10/17 12:37:57;;;;;;;;;;;16.40;99.90;;;;;;5091020;28;20373;-71
2023/10/17 12:40:26;;;;;;;;;;;16.60;99.90;;;;;;5090610;28;19932;-71
2023/10/17 12:42:55;;;;;;;;;;;16.60;99.90;;;;;;5091357;28;19928;-70
2023/10/17 12:45:22;;;;;;;;;;;16.50;99.90;;;;;;5090392;28;19932;-71
2023/10/17 12:47:49;;;;;;;;;;;16.30;99.90;;;;;;5090910;28;19932;-70
2023/10/17 12:50:15;;;;;;;;;;;16.30;99.90;;;;;;5089966;28;20622;-70
2023/10/17 12:52:42;;;;;;;;;;;16.30;99.90;;;;;;5091613;28;19969;-70
2023/10/17 12:55:09;;;;;;;;;;;16.30;99.90;;;;;;5090968;28;19932;-70
2023/10/17 12:57:38;;;;;;;;;;;16.30;99.90;;;;;;5090614;28;20467;-70
2023/10/17 13:00:09;;;;;;;;;;;16.20;99.90;;;;;;5089660;28;20395;-70
2023/10/17 13:02:35;;;;;;;;;;;15.70;99.90;;;;;;5090153;28;19927;-70
2023/10/17 13:05:03;;;;;;;;;;;15.50;99.90;;;;;;5089124;28;19935;-70
2023/10/17 13:07:29;;;;;;;;;;;15.60;99.90;;;;;;5089830;28;20401;-70
2023/10/17 13:09:56;;;;;;;;;;;15.70;99.90;;;;;;5088798;28;19986;-71
2023/10/17 13:12:22;;;;;;;;;;;16.00;99.90;;;;;;5089581;28;20344;-70
2023/10/17 13:14:51;;;;;;;;;;;16.20;99.90;;;;;;5087169;28;19972;-70
2023/10/17 13:17:18;;;;;;;;;;;16.40;99.90;;;;;;5088791;28;19924;-70
2023/10/17 13:19:48;;;;;;;;;;;16.40;99.90;;;;;;5089125;28;20101;-70
2023/10/17 13:22:17;;;;;;;;;;;16.40;99.90;;;;;;5089814;28;19932;-70
2023/10/17 13:24:45;;;;;;;;;;;16.10;99.90;;;;;;5088109;28;19928;-70
2023/10/17 13:27:11;;;;;;;;;;;16.10;99.90;;;;;;5090376;28;19935;-70
2023/10/17 13:29:38;;;;;;;;;;;16.50;99.90;;;;;;5089495;28;20455;-70
2023/10/17 13:32:07;;;;;;;;;;;16.90;99.90;;;;;;5090339;28;20393;-71
2023/10/17 13:34:34;;;;;;;;;;;16.90;99.90;;;;;;5089567;28;20415;-70
2023/10/17 13:37:04;;;;;;;;;;;16.80;99.90;;;;;;5089726;28;19924;-70
2023/10/17 13:39:31;;;;;;;;;;;16.60;99.90;;;;;;5088887;28;19928;-71
2023/10/17 13:41:57;;;;;;;;;;;16.60;99.90;;;;;;5089442;28;19932;-70
2023/10/17 13:44:24;;;;;;;;;;;16.40;99.90;;;;;;5090128;28;20679;-70
2023/10/17 13:46:51;;;;;;;;;;;16.30;99.90;;;;;;5087317;28;19969;-70
2023/10/17 13:49:19;;;;;;;;;;;16.20;99.90;;;;;;5089386;28;19971;-70
2023/10/17 13:51:47;;;;;;;;;;;16.30;99.90;;;;;;5089814;28;19961;-70
2023/10/17 13:54:14;;;;;;;;;;;15.90;99.90;;;;;;5089939;28;19932;-70
2023/10/17 13:56:41;;;;;;;;;;;15.70;99.90;;;;;;5088978;28;19938;-70
2023/10/17 13:59:09;;;;;;;;;;;15.50;99.90;;;;;;5089154;28;19932;-70
2023/10/17 14:01:41;;;;;;;;;;;15.60;99.90;;;;;;5088960;28;20459;-71
2023/10/17 14:04:09;;;;;;;;;;;15.90;99.90;;;;;;5089842;28;20035;-70
2023/10/17 14:06:39;;;;;;;;;;;15.90;99.90;;;;;;5088822;28;19932;-70
2023/10/17 14:09:14;;;;;;;;;;;15.90;99.90;;;;;;5089504;28;19932;-70
2023/10/17 14:11:41;;;;;;;;;;;15.70;99.90;;;;;;5089392;28;20009;-70
2023/10/17 14:14:10;;;;;;;;;;;15.60;99.90;;;;;;5089429;28;19931;-70
2023/10/17 14:16:40;;;;;;;;;;;15.50;99.90;;;;;;5088778;28;19924;-69
2023/10/17 14:19:13;;;;;;;;;;;15.60;99.90;;;;;;5090255;28;19924;-69
2023/10/17 14:21:43;;;;;;;;;;;15.60;99.90;;;;;;5089079;28;20413;-71
2023/10/17 14:24:11;;;;;;;;;;;15.70;99.90;;;;;;5089062;28;21070;-71
2023/10/17 14:26:37;;;;;;;;;;;15.80;99.90;;;;;;5088865;28;20457;-71
2023/10/17 14:29:05;;;;;;;;;;;15.90;99.90;;;;;;5088974;28;19924;-71
2023/10/17 14:31:31;;;;;;;;;;;16.10;99.90;;;;;;5088806;28;20003;-71
2023/10/17 14:33:57;;;;;;;;;;;16.10;99.90;;;;;;5088461;28;20035;-71
2023/10/17 14:36:24;;;;;;;;;;;16.10;99.90;;;;;;5089205;28;20005;-71
2023/10/17 14:38:52;;;;;;;;;;;15.90;99.90;;;;;;5088082;28;19932;-71
2023/10/17 14:41:19;;;;;;;;;;;15.60;99.90;;;;;;5089207;28;20493;-71
2023/10/17 14:43:46;;;;;;;;;;;15.30;99.90;;;;;;5088406;28;19970;-71
2023/10/17 14:46:13;;;;;;;;;;;15.10;99.90;;;;;;5087364;28;19981;-69
2023/10/17 14:48:40;;;;;;;;;;;14.90;99.90;;;;;;5088547;28;19932;-70
2023/10/17 14:51:07;;;;;;;;;;;15.10;99.90;;;;;;5088872;28;19924;-70
2023/10/17 14:53:34;;;;;;;;;;;15.10;99.90;;;;;;5089114;28;19940;-70
2023/10/17 14:56:04;;;;;;;;;;;15.10;99.90;;;;;;5088125;28;19950;-70
2023/10/17 14:58:31;;;;;;;;;;;15.10;99.90;;;;;;5087889;28;19979;-70
2023/10/17 15:00:57;;;;;;;;;;;14.90;99.90;;;;;;5087679;28;19932;-70
2023/10/17 15:03:25;;;;;;;;;;;14.70;99.90;;;;;;5087967;28;19992;-70
2023/10/17 15:05:52;;;;;;;;;;;14.60;99.90;;;;;;5088239;28;19932;-70
2023/10/17 15:08:19;;;;;;;;;;;14.40;99.90;;;;;;5088727;28;19924;-70
2023/10/17 15:10:46;;;;;;;;;;;14.30;99.90;;;;;;5086832;28;20309;-70
2023/10/17 15:13:13;;;;;;;;;;;14.20;99.90;;;;;;5088151;28;19924;-70
2023/10/17 15:15:41;;;;;;;;;;;14.00;99.90;;;;;;5087588;28;20359;-70
2023/10/17 15:18:08;;;;;;;;;;;13.80;99.90;;;;;;5088151;28;19930;-70
2023/10/17 15:20:35;;;;;;;;;;;13.70;99.90;;;;;;5087059;28;20396;-70
2023/10/17 15:23:02;;;;;;;;;;;13.60;99.90;;;;;;5088451;28;19932;-70
2023/10/17 15:25:29;;;;;;;;;;;13.40;99.90;;;;;;5087534;28;19936;-70
2023/10/17 15:27:55;;;;;;;;;;;13.20;99.90;;;;;;5087179;28;19934;-70
2023/10/17 15:30:23;;;;;;;;;;;13.20;99.90;;;;;;5087107;28;19928;-70
2023/10/17 15:32:50;;;;;;;;;;;13.20;99.90;;;;;;5086687;28;20393;-70
2023/10/17 15:35:17;;;;;;;;;;;13.10;99.90;;;;;;5082415;28;19924;-70
2023/10/17 15:37:46;;;;;;;;;;;12.90;99.90;;;;;;5086289;28;20459;-70
2023/10/17 15:40:16;;;;;;;;;;;12.90;99.90;;;;;;5087145;28;19932;-70
2023/10/17 15:42:43;;;;;;;;;;;12.80;99.90;;;;;;5087241;28;19978;-70
2023/10/17 15:45:11;;;;;;;;;;;12.70;99.90;;;;;;5087154;28;19930;-70
2023/10/17 15:47:39;;;;;;;;;;;12.60;99.90;;;;;;5086751;28;19939;-70
2023/10/17 15:50:06;;;;;;;;;;;12.50;99.90;;;;;;5086582;28;19978;-70
2023/10/17 15:52:33;;;;;;;;;;;12.40;99.90;;;;;;5087621;28;20037;-70
2023/10/17 15:55:00;;;;;;;;;;;12.30;99.90;;;;;;5087267;28;20001;-71
2023/10/17 15:57:26;;;;;;;;;;;12.20;99.90;;;;;;5085789;28;20728;-70
2023/10/17 15:59:53;;;;;;;;;;;12.20;99.90;;;;;;5087448;28;19939;-70